Saturday, November 18, 2017, 11:44 PM EST
Back to Local

KDKK, Chautauqua County/dunkirk

Location: Dunkirk, NY, United States Lat: 42.5
Local Time: 11:44 PM EST ( 4:44 GMT) Lon: -79.283
Time Zone: US/Eastern Elev: 692 ft

Show me the last for .
Show Decoded

2017-11-18 23:17 METAR KDKK 190417Z AUTO 27004KT 5SM -RA BR BKN003 OVC014 12/12 A2906 RMK AO2
                 P0001 T01170117 =
2017-11-18 22:53 METAR KDKK 190353Z AUTO 27005KT 3SM RA BR BKN004 BKN012 OVC020 12/11 A2908 RMK
                 AO2 CIG 002V007 SLP847 P0004 T01170111 =
2017-11-18 22:47 METAR KDKK 190347Z AUTO 26003KT 4SM -RA BR BKN004 OVC014 12/11 A2908 RMK AO2 CIG
                 002V007 P0003 =
2017-11-18 22:31 METAR KDKK 190331Z AUTO 28005KT 3SM -RA BR FEW005 BKN014 OVC020 12/11 A2909 RMK
                 AO2 P0002 T01170111 =
2017-11-18 21:53 METAR KDKK 190253Z AUTO 20009KT 9SM -RA BKN026 OVC035 13/11 A2909 RMK AO2 RAB49
                 SLP852 P0000 60000 T01280106 56032 =
2017-11-18 20:53 METAR KDKK 190153Z AUTO 18017G25KT 10SM SCT040 BKN070 13/10 A2911 RMK AO2 PK WND
                 19027/0132 RAE25 SLP857 P0000 T01280100 =
2017-11-18 19:53 METAR KDKK 190053Z AUTO 23011KT 10SM -RA FEW025 OVC040 12/09 A2916 RMK AO2 RAB48
                 SLP874 P0000 T01220094 =
2017-11-18 19:11 METAR KDKK 190011Z AUTO 22007KT 10SM FEW020 BKN047 OVC060 11/09 A2917 RMK AO2
                 T01110094 =
2017-11-18 18:53 METAR KDKK 182353Z AUTO VRB05KT 10SM FEW017 BKN027 OVC055 11/09 A2919 RMK AO2
                 RAE28 PRESFR SLP886 P0002 60028 T01060089 10106 20083 58041 =
2017-11-18 18:21 METAR KDKK 182321Z AUTO 19008KT 10SM -RA BKN024 OVC036 11/09 A2921 RMK AO2 P0002
                 T01060089 =
2017-11-18 17:53 METAR KDKK 182253Z AUTO 19008G17KT 10SM -RA OVC036 11/08 A2924 RMK AO2 SLP902
                 P0010 T01060083 =
2017-11-18 17:34 METAR KDKK 182234Z AUTO 17011KT 10SM -RA SCT028 OVC034 10/08 A2924 RMK AO2
                 PRESFR P0010 T01000083 =
2017-11-18 16:53 METAR KDKK 182153Z AUTO 24005KT 3SM +RA BR BKN023 BKN028 OVC033 09/08 A2930 RMK
                 AO2 SLP924 P0008 T00890078 =
2017-11-18 16:30 METAR KDKK 182130Z AUTO 19012G23KT 6SM RA BR OVC030 09/08 A2930 RMK AO2 P0003
                 T00940078 =
2017-11-18 15:53 METAR KDKK 182053Z AUTO 16010G16KT 9SM -RA BKN025 09/07 A2931 RMK AO2 PRESFR
                 SLP926 P0008 60008 T00890072 56051 =
2017-11-18 14:53 METAR KDKK 181953Z AUTO 18012KT 9SM -RA OVC020 09/07 A2936 RMK AO2 RAB39 SLP944
                 P0000 T00890072 =
2017-11-18 13:53 METAR KDKK 181853Z AUTO 18011G19KT 10SM OVC016 09/07 A2940 RMK AO2 PRESFR SLP957
                 T00890067 =
2017-11-18 12:53 METAR KDKK 181753Z AUTO 19013G23KT 10SM OVC016 08/06 A2947 RMK AO2 SLP981
                 T00830061 10083 20061 58031 =
2017-11-18 11:53 METAR KDKK 181653Z AUTO 18015KT 10SM OVC018 08/06 A2950 RMK AO2 SLP993 T00830056
                 =
2017-11-18 10:53 METAR KDKK 181553Z AUTO 18015G20KT 10SM OVC020 08/06 A2953 RMK AO2 SLP002
                 T00830056 =
2017-11-18 09:53 METAR KDKK 181453Z AUTO 20014KT 10SM OVC021 08/05 A2956 RMK AO2 SLP013 T00780050
                 56020 =
2017-11-18 08:53 METAR KDKK 181353Z AUTO 20012G28KT 10SM OVC024 07/04 A2958 RMK AO2 PK WND
                 18030/1328 SLP019 T00720044 =
2017-11-18 07:53 METAR KDKK 181253Z AUTO 19019G26KT 10SM OVC024 07/03 A2959 RMK AO2 PK WND
                 20027/1227 SLP024 T00670033 =
2017-11-18 07:16 METAR KDKK 181216Z AUTO 20015G21KT 10SM BKN026 OVC036 07/02 A2961 RMK AO2
                 T00670022 =
2017-11-18 06:53 METAR KDKK 181153Z AUTO 21012KT 10SM BKN040 OVC050 06/02 A2962 RMK AO2 PK WND
                 23028/1124 RAE21 SLP035 P0000 60001 70001 T00610017 10094 20033 55024 =
2017-11-18 05:53 METAR KDKK 181053Z AUTO 18020G30KT 9SM -RA OVC070 07/02 A2961 RMK AO2 PK WND
                 17030/1050 RAB0958 PRESFR SLP031 P0001 T00670022 =
2017-11-18 04:53 METAR KDKK 180953Z AUTO 23014KT 10SM SCT060 BKN070 OVC090 07/M04 A2969 RMK AO2
                 PK WND 18028/0907 SLP059 T00721039 =
2017-11-18 03:53 METAR KDKK 180853Z AUTO 21016G32KT 10SM CLR 09/M06 A2969 RMK AO2 PK WND
                 17033/0834 SLP058 T00941056 56023 =
2017-11-18 02:53 METAR KDKK 180753Z AUTO 19022G28KT 10SM BKN120 08/M04 A2972 RMK AO2 PK WND
                 19028/0751 WSHFT 0731 PRESFR SLP067 T00831044 =
2017-11-18 02:51 METAR KDKK 180751Z AUTO 18022G28KT 10SM BKN120 08/M04 A2972 RMK AO2 PK WND
                 19028/0751 WSHFT 0731 PRESFR =
2017-11-18 01:53 METAR KDKK 180653Z AUTO 27006KT 10SM CLR 05/M04 A2976 RMK AO2 SLP083 T00501039 =
2017-11-18 00:53 METAR KDKK 180553Z AUTO 27008KT 10SM CLR 04/M03 A2980 RMK AO2 PRESFR SLP096
                 T00391033 10039 20000 58045 =
2017-11-17 23:53 METAR KDKK 180453Z AUTO 30005KT 10SM CLR 03/M03 A2986 RMK AO2 SLP118 T00331028
                 400440000 =

Support USWX by starting your Amazon purchase here.